首页
METAR-TAF:

METAR-TAF

机场 :

奥斯汀, 明尼蘇達州, 美国

纬度: 43-40N, 经度: 092-56W, 海拔: 375米

当前天气观测

该预报发布于14分钟前的20:55 UTC
风速12节,风向西北
温度 -12°C
湿度 78%
气压 1013 hPa
能見度: 16.1公里
多云层高于1000英尺

METAR: KAUM 142055Z AUTO 31012KT 10SM BKN010 M12/M15 A2990 RMK AO2

时间: 15:09 (21:09 UTC)


TAF: 丢失

超过4000个机场的气象观测和天气预报(METAR&TAF报告)。

可查询的气象台以黄色和红色小点在地图上表示。

将鼠标移到小点上方,可查看气象台名称。

然后点击查看天气观测和预报。

如需切换地图:点击带黑十字的绿色按钮放大地图;点击带横线的绿色按钮缩小地图;或者点击绿色箭头查看邻近地区的地图。


METAR-TAF: